createdAt,value
2018-09-01T00:01:17.760Z,71.77
2018-09-01T00:03:46.425Z,71.30
2018-09-01T00:06:15.155Z,71.37
2018-09-01T00:08:43.801Z,71.47
2018-09-01T00:11:12.437Z,71.96
2018-09-01T00:13:41.229Z,71.58
2018-09-01T00:16:09.849Z,71.99
2018-09-01T00:18:39.002Z,71.99
2018-09-01T00:21:08.744Z,71.86
2018-09-01T00:23:37.330Z,72.36
2018-09-01T00:26:06.392Z,72.28
2018-09-01T00:28:35.078Z,72.70
2018-09-01T00:31:03.837Z,72.65
2018-09-01T00:33:32.464Z,72.74
2018-09-01T00:36:01.042Z,72.62
2018-09-01T00:38:34.920Z,73.10
2018-09-01T00:41:03.557Z,73.61
2018-09-01T00:43:32.188Z,73.11
2018-09-01T00:46:00.825Z,73.51
2018-09-01T00:48:29.412Z,73.55
2018-09-01T00:50:58.115Z,73.73
2018-09-01T00:53:26.794Z,73.41
2018-09-01T00:55:55.408Z,73.67
2018-09-01T00:58:24.126Z,73.65
2018-09-01T01:00:52.761Z,73.83
2018-09-01T01:03:21.569Z,73.88
2018-09-01T01:05:50.318Z,73.43
2018-09-01T01:08:18.944Z,73.32
2018-09-01T01:10:47.537Z,73.13
2018-09-01T01:13:16.189Z,73.55
2018-09-01T01:15:44.974Z,73.70
2018-09-01T01:18:13.621Z,73.16
2018-09-01T01:20:42.243Z,73.13
2018-09-01T01:23:10.884Z,73.48
2018-09-01T01:25:39.482Z,73.26
2018-09-01T01:28:08.170Z,73.52
2018-09-01T01:30:36.877Z,73.70
2018-09-01T01:33:05.508Z,73.28
2018-09-01T01:35:34.135Z,73.60
2018-09-01T01:38:02.778Z,72.76
2018-09-01T01:40:31.425Z,73.00
2018-09-01T01:43:00.161Z,73.20
2018-09-01T01:45:30.204Z,73.08
2018-09-01T01:47:59.535Z,72.83
2018-09-01T01:50:28.157Z,72.91
2018-09-01T01:52:56.816Z,73.17
2018-09-01T01:55:25.419Z,73.18
2018-09-01T01:57:54.166Z,73.18
2018-09-01T02:00:22.761Z,73.29
2018-09-01T02:02:51.384Z,73.44
2018-09-01T02:05:21.095Z,72.94
2018-09-01T02:07:50.961Z,73.54
2018-09-01T02:10:19.592Z,73.25
2018-09-01T02:12:48.220Z,73.13
2018-09-01T02:15:16.884Z,73.27
2018-09-01T02:17:45.532Z,73.48
2018-09-01T02:20:14.116Z,73.13
2018-09-01T02:22:42.848Z,73.49
2018-09-01T02:25:11.489Z,73.47
2018-09-01T02:27:40.092Z,73.38
2018-09-01T02:30:08.689Z,73.57
2018-09-01T02:32:37.305Z,73.29
2018-09-01T02:35:06.047Z,73.22
2018-09-01T02:37:34.719Z,73.21
2018-09-01T02:40:03.412Z,73.68
2018-09-01T02:42:33.052Z,73.46
2018-09-01T02:45:01.848Z,73.40
2018-09-01T02:47:30.533Z,73.74
2018-09-01T02:49:59.132Z,73.85
2018-09-01T02:52:27.764Z,73.66
2018-09-01T02:54:56.483Z,74.03
2018-09-01T02:57:25.125Z,74.19
2018-09-01T02:59:53.744Z,74.16
2018-09-01T03:02:27.917Z,74.51
2018-09-01T03:04:56.554Z,74.35
2018-09-01T03:07:25.332Z,74.87
2018-09-01T03:09:53.925Z,74.64
2018-09-01T03:12:22.615Z,74.41
2018-09-01T03:14:51.240Z,74.58
2018-09-01T03:17:20.173Z,74.54
2018-09-01T03:19:49.089Z,74.56
2018-09-01T03:22:17.794Z,74.48
2018-09-01T03:24:46.479Z,74.46
2018-09-01T03:27:15.161Z,74.47
2018-09-01T03:29:43.889Z,74.47
2018-09-01T03:32:12.461Z,73.89
2018-09-01T03:34:41.053Z,74.04
2018-09-01T03:37:09.642Z,74.13
2018-09-01T03:39:38.233Z,73.80
2018-09-01T03:42:06.859Z,73.90
2018-09-01T03:44:36.050Z,74.12
2018-09-01T03:47:04.808Z,74.19
2018-09-01T03:49:33.533Z,74.39
2018-09-01T03:52:02.261Z,74.84
2018-09-01T03:54:30.901Z,74.76
2018-09-01T03:56:59.524Z,75.09
2018-09-01T03:59:28.165Z,74.70
2018-09-01T04:01:56.852Z,74.88
2018-09-01T04:04:25.436Z,75.91
2018-09-01T04:06:54.151Z,75.56
2018-09-01T04:09:22.817Z,75.43
2018-09-01T04:11:51.572Z,75.89
2018-09-01T04:14:20.185Z,75.85
2018-09-01T04:16:48.853Z,75.80
2018-09-01T04:19:19.421Z,75.66
2018-09-01T04:21:49.781Z,75.43
2018-09-01T04:24:18.436Z,75.56
2018-09-01T04:26:47.673Z,75.49
2018-09-01T04:29:17.212Z,75.13
2018-09-01T04:31:46.972Z,75.41
2018-09-01T04:34:15.664Z,74.78
2018-09-01T04:36:44.679Z,74.81
2018-09-01T04:39:13.995Z,74.27
2018-09-01T04:41:43.336Z,74.35
2018-09-01T04:44:12.268Z,73.93
2018-09-01T04:46:41.248Z,73.93
2018-09-01T04:49:09.960Z,73.85
2018-09-01T04:51:38.720Z,73.62
2018-09-01T04:54:07.339Z,73.10
2018-09-01T04:56:36.059Z,73.27
2018-09-01T04:59:04.667Z,72.94
2018-09-01T05:01:33.405Z,73.32
2018-09-01T05:04:01.993Z,72.70
2018-09-01T05:06:30.584Z,72.79
2018-09-01T05:08:59.227Z,72.79
2018-09-01T05:11:27.930Z,72.79
2018-09-01T05:13:56.571Z,72.98
2018-09-01T05:16:25.282Z,72.93
2018-09-01T05:18:54.137Z,72.95
2018-09-01T05:21:22.776Z,72.86
2018-09-01T05:23:51.496Z,73.22
2018-09-01T05:26:20.312Z,72.67
2018-09-01T05:28:48.954Z,72.65
2018-09-01T05:31:18.992Z,72.81
2018-09-01T05:33:47.674Z,72.14
2018-09-01T05:36:16.522Z,71.46
2018-09-01T05:38:45.156Z,71.08
2018-09-01T05:41:13.801Z,70.68
2018-09-01T05:43:42.660Z,70.87
2018-09-01T05:46:11.533Z,71.05
2018-09-01T05:48:40.125Z,70.41
2018-09-01T05:51:08.784Z,70.69
2018-09-01T05:53:37.684Z,70.70
2018-09-01T05:56:06.459Z,70.82
2018-09-01T05:58:35.203Z,70.48
2018-09-01T06:01:03.988Z,70.60
2018-09-01T06:03:32.657Z,70.75
2018-09-01T06:06:01.413Z,70.30
2018-09-01T06:08:30.228Z,69.73
2018-09-01T06:10:58.958Z,68.48
2018-09-01T06:13:27.699Z,67.36
2018-09-01T06:15:56.460Z,66.76
2018-09-01T06:18:25.080Z,66.36
2018-09-01T06:20:53.833Z,66.98
2018-09-01T06:23:22.458Z,66.94
2018-09-01T06:25:51.053Z,67.35
2018-09-01T06:28:25.020Z,67.92
2018-09-01T06:30:54.780Z,67.62
2018-09-01T06:33:23.496Z,67.74
2018-09-01T06:35:52.146Z,68.09
2018-09-01T06:38:20.903Z,68.17
2018-09-01T06:40:49.523Z,68.67
2018-09-01T06:43:18.129Z,69.58
2018-09-01T06:45:48.496Z,71.25
2018-09-01T06:48:17.360Z,70.99
2018-09-01T06:50:46.697Z,71.00
2018-09-01T06:53:16.435Z,70.93
2018-09-01T06:55:45.080Z,71.54
2018-09-01T06:58:13.684Z,71.49
2018-09-01T07:00:42.605Z,71.83
2018-09-01T07:03:11.368Z,71.45
2018-09-01T07:05:40.064Z,71.24
2018-09-01T07:08:08.692Z,70.95
2018-09-01T07:10:37.293Z,70.35
2018-09-01T07:13:07.933Z,70.37
2018-09-01T07:15:37.201Z,70.52
2018-09-01T07:18:06.458Z,69.21
2018-09-01T07:20:35.048Z,68.51
2018-09-01T07:23:03.809Z,68.87
2018-09-01T07:25:32.435Z,68.34
2018-09-01T07:28:01.020Z,69.18
2018-09-01T07:30:29.943Z,69.01
2018-09-01T07:32:58.618Z,68.81
2018-09-01T07:35:27.948Z,67.56
2018-09-01T07:37:56.556Z,67.37
2018-09-01T07:40:25.140Z,64.84
2018-09-01T07:42:53.833Z,64.29
2018-09-01T07:45:22.448Z,64.28
2018-09-01T07:47:51.064Z,62.31
2018-09-01T07:50:19.905Z,60.75
2018-09-01T07:52:48.597Z,58.35
2018-09-01T07:55:17.989Z,56.37
2018-09-01T07:57:47.667Z,52.41
2018-09-01T08:00:16.922Z,50.26
2018-09-01T08:02:46.177Z,48.23
2018-09-01T08:05:15.384Z,46.08
2018-09-01T08:07:44.616Z,46.33
2018-09-01T08:10:13.783Z,46.31
2018-09-01T08:12:43.578Z,48.42
2018-09-01T08:15:12.805Z,48.91
2018-09-01T08:17:41.961Z,50.51
2018-09-01T08:20:11.254Z,51.63
2018-09-01T08:22:40.405Z,51.29
2018-09-01T08:25:10.078Z,50.94
2018-09-01T08:27:39.328Z,50.78
2018-09-01T08:30:08.583Z,52.19
2018-09-01T08:32:37.967Z,51.55
2018-09-01T08:35:07.295Z,51.98
2018-09-01T08:37:36.563Z,52.34
2018-09-01T08:40:06.324Z,52.92
2018-09-01T08:42:35.825Z,54.12
2018-09-01T08:45:04.541Z,54.62
2018-09-01T08:47:33.721Z,56.27
2018-09-01T08:50:03.961Z,57.83
2018-09-01T08:52:33.193Z,58.08
2018-09-01T08:55:01.857Z,58.47
2018-09-01T08:57:30.472Z,57.89
2018-09-01T08:59:59.138Z,58.74
2018-09-01T09:02:27.902Z,58.87
2018-09-01T09:04:57.064Z,58.05
2018-09-01T09:07:25.819Z,57.05
2018-09-01T09:09:54.496Z,57.85
2018-09-01T09:12:23.213Z,57.87
2018-09-01T09:14:52.379Z,57.75
2018-09-01T09:17:21.280Z,57.86
2018-09-01T09:19:49.922Z,58.64
2018-09-01T09:22:18.568Z,58.49
2018-09-01T09:27:22.580Z,58.00
2018-09-01T09:29:51.256Z,57.87
2018-09-01T09:32:20.420Z,57.09
2018-09-01T09:34:49.594Z,57.82
2018-09-01T09:37:18.860Z,57.41
2018-09-01T09:39:48.097Z,56.43
2018-09-01T09:42:17.407Z,56.60
2018-09-01T09:44:46.631Z,56.52
2018-09-01T09:47:15.919Z,57.57
2018-09-01T09:49:45.228Z,57.12
2018-09-01T09:52:14.449Z,58.57
2018-09-01T09:54:43.657Z,58.59
2018-09-01T09:57:12.832Z,60.27
2018-09-01T09:59:41.484Z,61.87
2018-09-01T10:02:10.085Z,63.81
2018-09-01T10:04:38.724Z,63.35
2018-09-01T10:07:07.597Z,64.30
2018-09-01T10:09:36.620Z,63.78
2018-09-01T10:12:05.244Z,63.96
2018-09-01T10:14:33.927Z,63.49
2018-09-01T10:17:02.643Z,62.92
2018-09-01T10:19:31.357Z,62.01
2018-09-01T10:22:00.100Z,62.05
2018-09-01T10:24:28.843Z,60.73
2018-09-01T10:26:57.674Z,60.37
2018-09-01T10:29:26.585Z,60.58
2018-09-01T10:31:55.835Z,60.45
2018-09-01T10:34:24.469Z,59.74
2018-09-01T10:36:53.160Z,60.10
2018-09-01T10:39:22.320Z,59.61
2018-09-01T10:41:51.573Z,59.30
2018-09-01T10:44:20.797Z,57.47
2018-09-01T10:46:49.515Z,58.26
2018-09-01T10:49:19.062Z,57.80
2018-09-01T10:51:48.311Z,57.42
2018-09-01T10:54:17.507Z,57.88
2018-09-01T10:56:46.739Z,56.59
2018-09-01T10:59:16.703Z,56.89
2018-09-01T11:01:46.235Z,56.20
2018-09-01T11:04:15.597Z,56.33
2018-09-01T11:06:44.770Z,54.81
2018-09-01T11:09:14.034Z,54.75
2018-09-01T11:11:43.230Z,54.96
2018-09-01T11:14:12.421Z,55.06
2018-09-01T11:16:41.654Z,55.60
2018-09-01T11:19:10.924Z,55.69
2018-09-01T11:21:40.136Z,54.66
2018-09-01T11:24:09.804Z,54.89
2018-09-01T11:26:39.269Z,55.06
2018-09-01T11:29:08.794Z,55.02
2018-09-01T11:31:37.976Z,54.73
2018-09-01T11:34:06.590Z,56.01
2018-09-01T11:36:35.708Z,56.16
2018-09-01T11:39:05.942Z,56.14
2018-09-01T11:41:35.158Z,55.58
2018-09-01T11:44:03.862Z,56.35
2018-09-01T11:46:32.866Z,57.26
2018-09-01T11:49:01.537Z,57.41
2018-09-01T11:51:30.904Z,57.12
2018-09-01T11:53:59.589Z,56.84
2018-09-01T11:56:28.226Z,57.39
2018-09-01T11:58:57.554Z,57.34
2018-09-01T12:01:26.315Z,56.59
2018-09-01T12:03:55.565Z,56.25
2018-09-01T12:06:24.156Z,55.46
2018-09-01T12:08:53.425Z,55.05
2018-09-01T12:11:22.312Z,54.73
2018-09-01T12:13:50.975Z,54.48
2018-09-01T12:16:20.156Z,54.76
2018-09-01T12:18:49.389Z,55.61
2018-09-01T12:21:18.653Z,53.93
2018-09-01T12:23:47.817Z,54.50
2018-09-01T12:26:16.479Z,53.57
2018-09-01T12:28:45.852Z,53.49
2018-09-01T12:31:15.084Z,52.52
2018-09-01T12:33:44.267Z,52.17
2018-09-01T12:36:13.460Z,52.60
2018-09-01T12:38:43.233Z,53.21
2018-09-01T12:41:13.272Z,51.18
2018-09-01T12:43:43.228Z,50.58
2018-09-01T12:46:12.496Z,51.49
2018-09-01T12:48:41.885Z,49.92
2018-09-01T12:51:11.124Z,48.96
2018-09-01T12:53:40.391Z,49.51
2018-09-01T12:56:10.780Z,48.65
2018-09-01T12:58:39.946Z,49.22
2018-09-01T13:01:09.194Z,49.35
2018-09-01T13:03:39.198Z,49.56
2018-09-01T13:06:09.347Z,50.34
2018-09-01T13:08:38.634Z,48.94
2018-09-01T13:11:08.192Z,49.01
2018-09-01T13:13:37.396Z,49.53
2018-09-01T13:16:06.700Z,50.04
2018-09-01T13:18:36.120Z,50.57
2018-09-01T13:21:05.681Z,50.38
2018-09-01T13:23:34.866Z,49.18
2018-09-01T13:26:04.077Z,49.14
2018-09-01T13:28:33.269Z,48.97
2018-09-01T13:31:02.508Z,49.61
2018-09-01T13:33:31.684Z,48.09
2018-09-01T13:36:00.933Z,49.96
2018-09-01T13:38:30.374Z,49.06
2018-09-01T13:40:59.879Z,50.38
2018-09-01T13:43:29.049Z,50.14
2018-09-01T13:45:58.380Z,49.42
2018-09-01T13:48:28.412Z,50.73
2018-09-01T13:50:57.669Z,51.64
2018-09-01T13:53:26.975Z,51.62
2018-09-01T13:55:56.265Z,50.99
2018-09-01T13:58:25.552Z,50.94
2018-09-01T14:00:54.984Z,51.53
2018-09-01T14:03:24.334Z,52.06
2018-09-01T14:05:55.258Z,52.86
2018-09-01T14:08:24.536Z,52.76
2018-09-01T14:10:53.728Z,53.96
2018-09-01T14:13:22.969Z,54.06
2018-09-01T14:15:52.237Z,54.76
2018-09-01T14:18:21.461Z,54.92
2018-09-01T14:20:50.697Z,54.46
2018-09-01T14:23:19.955Z,54.20
2018-09-01T14:25:49.256Z,54.12
2018-09-01T14:28:18.492Z,54.63
2018-09-01T14:30:47.813Z,54.05
2018-09-01T14:33:17.116Z,54.10
2018-09-01T14:35:46.297Z,54.44
2018-09-01T14:38:15.641Z,53.90
2018-09-01T14:40:44.896Z,54.05
2018-09-01T14:43:14.321Z,54.27
2018-09-01T14:45:43.539Z,54.42
2018-09-01T14:48:12.820Z,54.48
2018-09-01T14:50:42.919Z,54.01
2018-09-01T14:53:12.253Z,54.37
2018-09-01T14:55:41.790Z,55.27
2018-09-01T14:58:10.969Z,54.96
2018-09-01T15:00:40.460Z,55.88
2018-09-01T15:03:09.649Z,56.04
2018-09-01T15:05:39.113Z,56.52
2018-09-01T15:08:08.616Z,56.44
2018-09-01T15:10:37.895Z,55.29
2018-09-01T15:13:07.141Z,56.96
2018-09-01T15:15:35.779Z,56.79
2018-09-01T15:18:04.939Z,56.44
2018-09-01T15:20:34.260Z,56.35
2018-09-01T15:23:03.437Z,56.53
2018-09-01T15:25:32.680Z,57.33
2018-09-01T15:28:01.628Z,56.67
2018-09-01T15:30:30.972Z,57.02
2018-09-01T15:33:00.194Z,57.61
2018-09-01T15:35:29.068Z,57.65
2018-09-01T15:37:58.827Z,57.14
2018-09-01T15:40:28.124Z,57.40
2018-09-01T15:42:56.819Z,57.35
2018-09-01T15:45:25.504Z,57.59
2018-09-01T15:47:54.732Z,58.13
2018-09-01T15:50:23.379Z,58.40
2018-09-01T15:52:52.009Z,57.91
2018-09-01T15:55:20.628Z,58.52
2018-09-01T15:57:49.196Z,58.19
2018-09-01T16:00:17.820Z,58.19
2018-09-01T16:02:46.733Z,59.01
2018-09-01T16:05:16.312Z,58.75
2018-09-01T16:07:45.067Z,59.88
2018-09-01T16:10:13.688Z,59.65
2018-09-01T16:12:42.480Z,60.39
2018-09-01T16:15:11.718Z,60.94
2018-09-01T16:17:40.440Z,61.20
2018-09-01T16:20:09.036Z,63.33
2018-09-01T16:22:37.637Z,63.69
2018-09-01T16:25:06.598Z,64.88
2018-09-01T16:27:35.486Z,71.44
2018-09-01T16:30:04.206Z,81.93
2018-09-01T16:32:32.858Z,89.18
2018-09-01T16:35:01.695Z,91.92
2018-09-01T16:37:30.334Z,93.68
2018-09-01T16:39:59.057Z,94.64
2018-09-01T16:42:27.771Z,95.50
2018-09-01T16:44:56.370Z,96.38
2018-09-01T16:47:25.671Z,96.86
2018-09-01T16:49:54.348Z,97.42
2018-09-01T16:52:22.997Z,97.48
2018-09-01T16:54:51.729Z,97.54
2018-09-01T16:57:20.383Z,97.63
2018-09-01T16:59:49.162Z,97.81
2018-09-01T17:02:17.754Z,97.93
2018-09-01T17:04:46.341Z,98.09
2018-09-01T17:07:15.077Z,97.81
2018-09-01T17:09:43.963Z,98.45
2018-09-01T17:12:12.541Z,98.56
2018-09-01T17:14:41.281Z,98.54
2018-09-01T17:17:09.909Z,98.43
2018-09-01T17:19:38.672Z,98.48
2018-09-01T17:22:07.664Z,98.46
2018-09-01T17:24:36.300Z,98.26
2018-09-01T17:27:05.037Z,97.96
2018-09-01T17:29:33.826Z,98.09
2018-09-01T17:32:03.458Z,98.18
2018-09-01T17:34:32.069Z,98.08
2018-09-01T17:37:00.728Z,98.34
2018-09-01T17:39:29.316Z,98.26
2018-09-01T17:41:57.884Z,98.10
2018-09-01T17:44:26.505Z,98.12
2018-09-01T17:46:55.247Z,97.77
2018-09-01T17:49:23.827Z,97.55
2018-09-01T17:51:52.410Z,97.74
2018-09-01T17:54:21.137Z,97.81
2018-09-01T17:56:49.805Z,97.84
2018-09-01T17:59:18.742Z,97.92
2018-09-01T18:01:47.395Z,98.21
2018-09-01T18:04:15.972Z,98.06
2018-09-01T18:06:44.610Z,98.04
2018-09-01T18:09:13.236Z,98.57
2018-09-01T18:11:41.815Z,97.74
2018-09-01T18:14:10.557Z,97.69
2018-09-01T18:16:39.216Z,97.84
2018-09-01T18:19:08.353Z,97.61
2018-09-01T18:21:37.044Z,97.33
2018-09-01T18:24:05.728Z,97.37
2018-09-01T18:26:34.377Z,97.16
2018-09-01T18:29:03.068Z,97.31
2018-09-01T18:31:32.032Z,97.35
2018-09-01T18:34:00.636Z,96.96
2018-09-01T18:36:29.377Z,96.72
2018-09-01T18:38:58.040Z,97.29
2018-09-01T18:41:26.988Z,96.88
2018-09-01T18:43:55.624Z,97.29
2018-09-01T18:46:24.299Z,96.81
2018-09-01T18:48:53.055Z,96.92
2018-09-01T18:51:21.645Z,96.40
2018-09-01T18:53:50.268Z,96.54
2018-09-01T18:56:18.888Z,96.10
2018-09-01T18:58:47.524Z,95.93
2018-09-01T19:01:16.148Z,95.80
2018-09-01T19:03:44.733Z,95.83
2018-09-01T19:06:13.526Z,95.91
2018-09-01T19:08:42.292Z,95.33
2018-09-01T19:11:10.947Z,95.48
2018-09-01T19:13:39.947Z,95.52
2018-09-01T19:16:08.820Z,94.89
2018-09-01T19:18:37.825Z,94.70
2018-09-01T19:21:07.206Z,94.77
2018-09-01T19:23:37.037Z,94.81
2018-09-01T19:26:05.960Z,94.78
2018-09-01T19:28:34.691Z,95.20
2018-09-01T19:31:03.449Z,95.01
2018-09-01T19:33:32.107Z,95.25
2018-09-01T19:36:00.768Z,95.31
2018-09-01T19:38:29.492Z,95.03
2018-09-01T19:40:58.227Z,94.48
2018-09-01T19:43:26.909Z,94.65
2018-09-01T19:45:55.574Z,94.71
2018-09-01T19:48:24.220Z,94.77
2018-09-01T19:50:52.974Z,94.78
2018-09-01T19:53:21.661Z,94.95
2018-09-01T19:55:50.281Z,94.50
2018-09-01T19:58:18.942Z,94.53
2018-09-01T20:00:47.657Z,94.82
2018-09-01T20:03:16.302Z,94.86
2018-09-01T20:05:44.894Z,95.04
2018-09-01T20:08:13.553Z,94.47
2018-09-01T20:10:42.213Z,94.78
2018-09-01T20:13:10.885Z,95.24
2018-09-01T20:15:39.480Z,95.27
2018-09-01T20:18:08.088Z,95.55
2018-09-01T20:20:36.735Z,96.15
2018-09-01T20:23:05.756Z,96.36
2018-09-01T20:25:34.467Z,96.70
2018-09-01T20:28:03.069Z,97.03
2018-09-01T20:30:31.803Z,97.33
2018-09-01T20:33:00.512Z,97.86
2018-09-01T20:35:34.456Z,97.43
2018-09-01T20:38:03.206Z,98.13
2018-09-01T20:40:32.012Z,98.07
2018-09-01T20:43:00.637Z,98.32
2018-09-01T20:45:29.315Z,98.36
2018-09-01T20:47:58.123Z,98.28
2018-09-01T20:50:26.959Z,98.78
2018-09-01T20:52:55.647Z,98.72
2018-09-01T20:55:24.807Z,99.27
2018-09-01T20:57:53.527Z,99.24
2018-09-01T21:00:22.197Z,99.36
2018-09-01T21:02:50.869Z,99.02
2018-09-01T21:05:19.508Z,99.09
2018-09-01T21:07:48.880Z,99.03
2018-09-01T21:10:17.555Z,98.99
2018-09-01T21:12:46.400Z,99.07
2018-09-01T21:15:15.240Z,98.90
2018-09-01T21:17:43.891Z,98.83
2018-09-01T21:20:12.572Z,98.73
2018-09-01T21:22:41.153Z,98.49
2018-09-01T21:25:10.147Z,98.26
2018-09-01T21:27:38.970Z,98.06
2018-09-01T21:30:08.108Z,98.04
2018-09-01T21:32:36.697Z,97.92
2018-09-01T21:35:06.822Z,97.89
2018-09-01T21:37:35.484Z,97.78
2018-09-01T21:40:04.882Z,97.62
2018-09-01T21:42:33.571Z,97.70
2018-09-01T21:45:02.224Z,97.60
2018-09-01T21:47:30.892Z,97.62
2018-09-01T21:49:59.604Z,97.87
2018-09-01T21:52:28.315Z,97.75
2018-09-01T21:54:56.898Z,97.73
2018-09-01T21:57:25.618Z,97.89
2018-09-01T21:59:54.436Z,97.95
2018-09-01T22:02:23.040Z,97.99
2018-09-01T22:04:57.024Z,97.92
2018-09-01T22:07:25.741Z,97.42
2018-09-01T22:09:55.217Z,97.31
2018-09-01T22:12:25.096Z,97.26
2018-09-01T22:14:54.616Z,97.40
2018-09-01T22:17:23.701Z,97.01
2018-09-01T22:19:52.327Z,96.81
2018-09-01T22:22:21.947Z,96.91
2018-09-01T22:24:50.634Z,96.77
2018-09-01T22:27:19.263Z,96.67
2018-09-01T22:29:47.864Z,96.54
2018-09-01T22:32:16.489Z,96.21
2018-09-01T22:34:45.221Z,96.55
2018-09-01T22:37:14.248Z,96.39
2018-09-01T22:39:42.889Z,96.32
2018-09-01T22:42:11.480Z,96.44
2018-09-01T22:44:40.161Z,96.37
2018-09-01T22:47:12.576Z,96.12
2018-09-01T22:49:41.269Z,96.01
2018-09-01T22:52:09.913Z,95.91
2018-09-01T22:54:38.603Z,96.22
2018-09-01T22:57:07.361Z,96.08
2018-09-01T22:59:36.040Z,96.00
2018-09-01T23:02:05.668Z,96.25
2018-09-01T23:04:34.336Z,96.05
2018-09-01T23:07:02.992Z,95.70
2018-09-01T23:09:31.580Z,96.13
2018-09-01T23:12:00.506Z,95.99
2018-09-01T23:14:29.132Z,95.72
2018-09-01T23:16:57.983Z,95.75
2018-09-01T23:19:26.713Z,95.51
2018-09-01T23:21:55.305Z,95.74
2018-09-01T23:24:23.977Z,95.75
2018-09-01T23:26:52.587Z,95.83
2018-09-01T23:29:21.193Z,95.67
2018-09-01T23:31:49.793Z,95.42
2018-09-01T23:34:18.833Z,95.13
2018-09-01T23:36:47.513Z,95.10
2018-09-01T23:39:16.114Z,95.10
2018-09-01T23:41:45.182Z,95.07
2018-09-01T23:44:13.799Z,95.29
2018-09-01T23:46:42.391Z,95.07
2018-09-01T23:49:11.009Z,95.19
2018-09-01T23:51:39.634Z,94.43
2018-09-01T23:54:08.234Z,94.25
2018-09-01T23:56:36.824Z,94.26
2018-09-01T23:59:06.123Z,93.90
